Time;durP1;ratioP1;P1;durP2;ratioP2;P2;SDS_P1;SDS_P2;PMS_P1;PMS_P2;Temp;Humidity;BMP_temperature;BMP_pressure;BME280_temperature;BME280_humidity;BME280_pressure;Samples;Min_cycle;Max_cycle;Signal;HPM_P1;HPM_P2
2024/03/08 00:00:23;;;;;;;31.67;14.13;;;;;;;3.73;54.13;101206.75;123814;1099;104326;-81
2024/03/08 00:03:15;;;;;;;31.50;14.33;;;;;;;3.77;54.76;101205.28;124252;1099;104860;-81
2024/03/08 00:05:46;;;;;;;30.70;13.70;;;;;;;3.81;54.31;101201.23;124127;1099;104347;-81
2024/03/08 00:08:18;;;;;;;33.83;14.03;;;;;;;3.85;54.67;101193.80;124158;1099;104223;-80
2024/03/08 00:10:49;;;;;;;30.47;13.83;;;;;;;3.88;54.32;101188.83;124123;1099;104274;-80
2024/03/08 00:13:21;;;;;;;30.37;14.37;;;;;;;3.82;55.08;101198.76;124191;1099;104219;-81
2024/03/08 00:15:53;;;;;;;31.67;14.43;;;;;;;3.75;54.24;101192.19;124125;1099;104334;-80
2024/03/08 00:18:24;;;;;;;29.80;13.60;;;;;;;3.71;54.38;101197.96;124078;1098;104241;-80
2024/03/08 00:20:57;;;;;;;28.60;14.27;;;;;;;3.70;54.45;101184.87;123720;1099;104200;-80
2024/03/08 00:23:28;;;;;;;30.07;12.97;;;;;;;3.67;55.32;101188.12;124143;1099;104290;-80
2024/03/08 00:25:59;;;;;;;29.87;14.00;;;;;;;3.65;55.22;101181.94;124078;1099;104274;-81
2024/03/08 00:28:30;;;;;;;33.33;15.03;;;;;;;3.65;55.15;101176.73;124055;1099;104380;-80
2024/03/08 00:31:01;;;;;;;31.47;13.87;;;;;;;3.64;54.58;101180.11;124134;1098;104242;-80
2024/03/08 00:33:33;;;;;;;29.13;14.07;;;;;;;3.63;55.10;101182.59;124009;1099;104229;-81
2024/03/08 00:36:04;;;;;;;36.90;15.10;;;;;;;3.62;54.51;101179.11;124020;1099;104252;-80
2024/03/08 00:38:35;;;;;;;31.57;13.90;;;;;;;3.59;55.56;101174.58;123909;1099;104367;-79
2024/03/08 00:41:07;;;;;;;33.85;15.75;;;;;;;3.56;55.52;101174.35;123780;1099;104363;-80
2024/03/08 00:43:38;;;;;;;33.03;14.73;;;;;;;3.54;54.94;101178.53;124013;1099;104743;-80
2024/03/08 00:46:10;;;;;;;33.97;14.87;;;;;;;3.49;55.60;101169.52;124121;1099;104198;-79
2024/03/08 00:48:43;;;;;;;32.90;15.00;;;;;;;3.47;54.75;101170.17;124024;1099;104354;-80
2024/03/08 00:51:16;;;;;;;31.02;13.93;;;;;;;3.42;54.82;101172.42;124053;1098;104319;-80
2024/03/08 00:53:47;;;;;;;34.37;14.73;;;;;;;3.44;55.18;101163.05;124077;1099;104345;-80
2024/03/08 00:56:18;;;;;;;30.13;14.63;;;;;;;3.44;54.95;101172.54;124095;1098;104392;-79
2024/03/08 00:58:49;;;;;;;33.50;14.00;;;;;;;3.42;55.62;101169.83;123847;1099;104354;-80
2024/03/08 01:01:22;;;;;;;27.70;13.37;;;;;;;3.41;55.10;101165.42;124133;1099;104242;-80
2024/03/08 01:03:53;;;;;;;29.97;13.70;;;;;;;3.39;55.67;101170.49;123985;1099;104370;-80
2024/03/08 01:06:24;;;;;;;29.20;13.67;;;;;;;3.40;55.41;101167.12;124096;1099;104310;-81
2024/03/08 01:08:55;;;;;;;32.50;14.30;;;;;;;3.40;55.02;101169.72;124019;1099;104306;-81
2024/03/08 01:11:27;;;;;;;31.20;14.30;;;;;;;3.41;54.90;101168.02;123984;1099;104310;-80
2024/03/08 01:13:59;;;;;;;34.70;14.80;;;;;;;3.42;55.86;101172.42;124194;1099;104245;-81
2024/03/08 01:16:31;;;;;;;32.50;14.23;;;;;;;3.46;55.24;101166.69;124166;1099;104344;-81
2024/03/08 01:19:03;;;;;;;31.13;14.33;;;;;;;3.46;55.52;101161.50;124017;1099;104351;-81
2024/03/08 01:21:34;;;;;;;29.60;13.77;;;;;;;3.46;55.51;101161.50;124185;1099;104239;-80
2024/03/08 01:24:06;;;;;;;30.83;14.80;;;;;;;3.46;55.26;101171.88;123771;1099;104280;-80
2024/03/08 01:26:38;;;;;;;30.90;14.50;;;;;;;3.42;55.39;101168.13;123655;1098;104274;-80
2024/03/08 01:29:09;;;;;;;29.70;14.13;;;;;;;3.40;55.72;101167.12;123974;1099;104303;-80
2024/03/08 01:31:40;;;;;;;34.50;15.07;;;;;;;3.34;55.84;101165.77;123726;1099;104335;-80
2024/03/08 01:34:12;;;;;;;31.87;14.20;;;;;;;3.30;55.83;101169.80;123975;1099;104281;-80
2024/03/08 01:36:45;;;;;;;35.20;16.23;;;;;;;3.28;55.84;101163.60;123996;1099;104224;-81
2024/03/08 01:39:17;;;;;;;37.65;16.90;;;;;;;3.28;55.95;101168.79;124065;1099;104184;-79
2024/03/08 01:41:48;;;;;;;34.00;15.33;;;;;;;3.23;56.25;101172.73;124122;1099;104299;-79
2024/03/08 01:44:19;;;;;;;36.03;15.60;;;;;;;3.16;55.63;101160.97;124047;1098;104315;-80
2024/03/08 01:46:52;;;;;;;32.03;14.97;;;;;;;3.15;55.59;101166.07;124146;1098;104412;-80
2024/03/08 01:49:25;;;;;;;28.33;14.17;;;;;;;3.14;56.02;101172.03;124239;1099;104383;-80
2024/03/08 01:51:57;;;;;;;34.55;14.80;;;;;;;3.12;55.99;101171.92;124078;1098;104251;-81
2024/03/08 01:54:29;;;;;;;35.30;14.93;;;;;;;3.13;55.91;101170.22;124154;1099;104306;-81
2024/03/08 01:57:01;;;;;;;32.97;14.63;;;;;;;3.16;55.89;101171.34;124115;1099;104414;-80
2024/03/08 01:59:33;;;;;;;34.20;15.25;;;;;;;3.19;56.54;101165.50;123973;1099;104409;-80
2024/03/08 02:02:06;;;;;;;29.37;14.03;;;;;;;3.20;55.81;101168.20;124090;1099;104283;-80
2024/03/08 02:04:40;;;;;;;34.67;15.70;;;;;;;3.18;56.46;101163.68;123660;1100;104280;-80
2024/03/08 02:07:11;;;;;;;33.17;15.07;;;;;;;3.16;56.48;101162.67;124136;1099;104258;-80
2024/03/08 02:09:43;;;;;;;32.80;15.70;;;;;;;3.16;56.47;101160.97;123985;1099;104249;-79
2024/03/08 02:12:14;;;;;;;31.73;14.77;;;;;;;3.21;56.50;101170.03;123931;1099;104293;-80
2024/03/08 02:14:45;;;;;;;29.50;13.93;;;;;;;3.21;56.53;101169.10;123863;1099;104383;-79
2024/03/08 02:17:18;;;;;;;32.70;15.33;;;;;;;3.16;55.94;101160.97;123948;1099;104252;-79
2024/03/08 02:19:49;;;;;;;34.07;15.07;;;;;;;3.12;56.03;101164.14;124020;1099;104294;-80
2024/03/08 02:22:20;;;;;;;34.40;15.60;;;;;;;3.12;56.42;101163.25;124039;1099;104290;-80
2024/03/08 02:24:51;;;;;;;32.17;15.17;;;;;;;3.14;56.36;101161.66;123758;1099;104412;-80
2024/03/08 02:27:27;;;;;;;31.10;14.43;;;;;;;3.16;56.19;101167.86;123976;1099;104312;-80
2024/03/08 02:29:59;;;;;;;33.60;15.27;;;;;;;3.16;55.92;101160.97;123801;1099;104344;-81
2024/03/08 02:32:32;;;;;;;32.10;14.90;;;;;;;3.18;56.63;101163.68;124061;1099;104226;-80
2024/03/08 02:35:06;;;;;;;32.53;14.53;;;;;;;3.18;56.46;101149.05;124027;1099;104309;-80
2024/03/08 02:37:38;;;;;;;29.98;14.20;;;;;;;3.18;56.86;101151.64;123973;1099;104380;-81
2024/03/08 02:40:14;;;;;;;47.57;22.80;;;;;;;3.18;55.96;101150.71;124052;1099;104188;-80
2024/03/08 02:42:45;;;;;;;47.30;22.20;;;;;;;3.15;56.16;101145.33;123626;1099;104370;-80
2024/03/08 02:45:17;;;;;;;47.15;21.20;;;;;;;3.14;56.54;101152.18;123628;1099;104261;-81
2024/03/08 02:47:49;;;;;;;47.40;20.73;;;;;;;3.16;56.91;101145.41;123890;1099;104315;-81
2024/03/08 02:50:22;;;;;;;39.87;19.33;;;;;;;3.22;56.36;101156.25;123842;1099;105662;-81
2024/03/08 02:52:53;;;;;;;43.60;19.30;;;;;;;3.22;56.97;101147.58;123965;1099;104354;-81
2024/03/08 02:55:25;;;;;;;45.07;18.87;;;;;;;3.20;56.38;101151.75;123977;1099;104348;-80
2024/03/08 02:57:57;;;;;;;34.70;17.75;;;;;;;3.17;56.55;101152.41;124002;1099;104335;-80
2024/03/08 03:00:30;;;;;;;36.37;16.23;;;;;;;3.18;56.45;101153.30;123689;1099;104351;-80
2024/03/08 03:03:02;;;;;;;34.37;15.00;;;;;;;3.12;56.52;101153.77;123937;1099;104271;-80
2024/03/08 03:05:34;;;;;;;31.83;15.00;;;;;;;3.05;57.00;101151.48;123970;1099;104252;-80
2024/03/08 03:08:08;;;;;;;30.03;13.63;;;;;;;3.01;56.44;101152.95;123889;1099;104332;-80
2024/03/08 03:10:39;;;;;;;30.10;14.00;;;;;;;2.99;56.48;101149.34;123918;1099;104344;-80
2024/03/08 03:13:12;;;;;;;31.77;14.17;;;;;;;2.97;57.04;101144.81;123880;1099;104339;-79
2024/03/08 03:15:43;;;;;;;32.60;13.77;;;;;;;2.97;56.65;101147.41;123997;1098;104320;-80
2024/03/08 03:18:15;;;;;;;32.87;15.50;;;;;;;2.98;56.59;101142.34;124025;1099;104280;-79
2024/03/08 03:20:46;;;;;;;29.87;15.40;;;;;;;2.97;57.28;101137.04;123961;1099;104245;-80
2024/03/08 03:23:20;;;;;;;35.15;16.75;;;;;;;2.98;56.67;101134.56;124067;1099;104371;-80
2024/03/08 03:25:52;;;;;;;34.88;15.95;;;;;;;3.00;56.70;101140.76;123991;1099;104319;-80
2024/03/08 03:28:23;;;;;;;32.63;16.10;;;;;;;3.02;56.69;101146.06;124052;1099;104251;-79
2024/03/08 03:30:58;;;;;;;31.17;14.80;;;;;;;2.97;57.18;101144.81;123943;1099;104354;-80
2024/03/08 03:33:30;;;;;;;35.50;16.83;;;;;;;2.94;56.89;101140.28;124104;1099;104324;-80
2024/03/08 03:36:02;;;;;;;35.90;16.90;;;;;;;2.94;57.51;101141.98;124158;1099;104251;-80
2024/03/08 03:38:34;;;;;;;34.63;16.73;;;;;;;2.95;57.59;101143.80;124064;1098;104446;-80
2024/03/08 03:41:10;;;;;;;33.77;16.60;;;;;;;2.93;57.39;101145.36;124045;1099;104354;-79
2024/03/08 03:43:41;;;;;;;35.13;16.13;;;;;;;2.89;57.22;101149.41;124031;1099;104245;-80
2024/03/08 03:46:12;;;;;;;40.37;16.73;;;;;;;2.86;57.17;101149.17;123743;1099;104198;-80
2024/03/08 03:48:43;;;;;;;34.43;16.63;;;;;;;2.87;57.58;101146.70;123780;1099;104297;-79
2024/03/08 03:51:15;;;;;;;36.63;16.40;;;;;;;2.84;57.32;101149.06;123774;1099;104344;-79
2024/03/08 03:53:46;;;;;;;33.27;16.10;;;;;;;2.82;57.59;101153.23;123931;1099;104270;-79
2024/03/08 03:56:17;;;;;;;35.43;16.67;;;;;;;2.79;57.07;101152.99;124092;1098;104342;-79
2024/03/08 03:58:49;;;;;;;38.80;17.63;;;;;;;2.77;57.68;101149.36;123972;1099;104272;-79
2024/03/08 04:01:21;;;;;;;34.47;17.17;;;;;;;2.72;57.39;101152.41;123765;1099;104271;-79
2024/03/08 04:03:52;;;;;;;34.20;16.50;;;;;;;2.70;57.21;101149.69;123926;1099;104277;-79
2024/03/08 04:06:24;;;;;;;37.37;18.20;;;;;;;2.67;57.86;101152.05;123993;1099;104242;-79
2024/03/08 04:08:55;;;;;;;36.83;16.87;;;;;;;2.65;57.92;101151.92;124162;1099;104269;-80
2024/03/08 04:11:26;;;;;;;33.57;16.20;;;;;;;2.71;57.43;101141.11;124096;1099;104363;-81
2024/03/08 04:13:57;;;;;;;34.37;16.27;;;;;;;2.77;58.05;101141.58;124106;1099;104348;-80
2024/03/08 04:16:30;;;;;;;39.30;17.57;;;;;;;2.78;57.32;101142.51;124131;1099;104829;-80
2024/03/08 04:19:04;;;;;;;38.03;17.77;;;;;;;2.78;58.08;101150.28;124358;1098;104348;-79
2024/03/08 04:21:35;;;;;;;35.03;17.23;;;;;;;2.77;57.56;101148.47;124205;1099;104290;-79
2024/03/08 04:24:07;;;;;;;36.17;16.77;;;;;;;2.77;57.69;101157.13;123911;1099;104316;-79
2024/03/08 04:26:39;;;;;;;34.47;16.60;;;;;;;2.76;57.87;101141.47;124026;1099;104220;-80
2024/03/08 04:29:14;;;;;;;38.67;17.27;;;;;;;2.76;57.70;101139.80;124128;1099;104389;-80
2024/03/08 04:31:48;;;;;;;36.80;17.07;;;;;;;2.77;57.42;101148.47;123844;1099;104268;-80
2024/03/08 04:34:19;;;;;;;39.17;17.80;;;;;;;2.76;57.89;101147.58;124014;1099;104251;-80
2024/03/08 04:36:51;;;;;;;37.65;16.75;;;;;;;2.76;58.20;101155.34;124079;1099;104275;-79
2024/03/08 04:39:22;;;;;;;37.10;17.90;;;;;;;2.75;57.58;101156.13;124071;1099;104320;-79
2024/03/08 04:41:54;;;;;;;38.37;18.50;;;;;;;2.76;57.86;101157.02;123938;1098;104327;-80
2024/03/08 04:44:26;;;;;;;38.03;17.13;;;;;;;2.77;57.66;101158.83;123576;1099;104272;-79
2024/03/08 04:46:57;;;;;;;40.03;18.30;;;;;;;2.77;57.72;101154.55;124105;1099;104255;-80
2024/03/08 04:49:30;;;;;;;36.20;16.40;;;;;;;2.79;57.97;101160.77;124169;1099;104216;-80
2024/03/08 04:52:02;;;;;;;41.43;18.77;;;;;;;2.76;57.94;101154.42;124099;1099;104280;-80
2024/03/08 04:54:34;;;;;;;36.05;18.40;;;;;;;2.74;57.85;101167.27;124016;1099;104263;-80
2024/03/08 04:57:05;;;;;;;38.30;18.20;;;;;;;2.75;58.49;101163.00;124021;1099;104268;-81
2024/03/08 04:59:37;;;;;;;34.90;16.77;;;;;;;2.79;58.54;101171.14;124021;1099;104357;-79
2024/03/08 05:02:08;;;;;;;35.73;17.80;;;;;;;2.81;57.88;101172.15;124198;1099;104269;-80
2024/03/08 05:04:39;;;;;;;38.83;18.53;;;;;;;2.87;58.35;101176.92;124199;1099;104267;-79
2024/03/08 05:07:11;;;;;;;40.67;18.40;;;;;;;2.89;58.19;101177.93;124017;1099;104331;-79
2024/03/08 05:09:42;;;;;;;42.37;18.20;;;;;;;2.86;57.78;101180.28;124025;1099;104322;-80
2024/03/08 05:12:13;;;;;;;41.23;17.50;;;;;;;2.87;58.55;101180.40;124069;1099;104182;-79
2024/03/08 05:14:44;;;;;;;38.77;18.43;;;;;;;2.87;57.69;101182.99;124031;1098;104290;-79
2024/03/08 05:17:16;;;;;;;41.53;18.83;;;;;;;2.82;58.58;101186.92;124115;1098;104361;-80
2024/03/08 05:19:47;;;;;;;38.80;17.80;;;;;;;2.77;58.46;101183.05;123999;1099;104307;-79
2024/03/08 05:22:18;;;;;;;39.30;18.50;;;;;;;2.81;58.15;101192.00;124371;1099;104313;-78
2024/03/08 05:24:50;;;;;;;36.97;17.23;;;;;;;2.80;58.56;101195.36;124370;1099;104254;-80
2024/03/08 05:27:21;;;;;;;39.37;18.57;;;;;;;2.81;58.71;101192.00;124163;1099;104249;-80
2024/03/08 05:29:52;;;;;;;39.03;18.07;;;;;;;2.83;57.99;101191.30;123881;1099;104271;-80
2024/03/08 05:32:24;;;;;;;40.73;17.87;;;;;;;2.90;58.26;101199.56;124188;1099;104252;-80
2024/03/08 05:34:56;;;;;;;41.13;18.33;;;;;;;2.94;58.86;101197.33;124117;1099;107967;-79
2024/03/08 05:37:27;;;;;;;42.90;18.97;;;;;;;2.94;58.44;101197.33;123985;1099;104286;-80
2024/03/08 05:39:58;;;;;;;40.73;20.07;;;;;;;2.97;58.80;101197.56;123942;1099;104325;-79
2024/03/08 05:42:29;;;;;;;39.97;18.57;;;;;;;2.99;58.23;101198.61;124089;1099;104272;-79
2024/03/08 05:45:01;;;;;;;42.23;18.90;;;;;;;2.99;58.81;101200.27;124006;1099;104176;-80
2024/03/08 05:47:32;;;;;;;42.97;19.43;;;;;;;2.99;58.27;101205.45;123860;1099;104384;-79
2024/03/08 05:50:04;;;;;;;38.70;19.00;;;;;;;3.00;58.75;101204.69;124160;1099;104258;-80
2024/03/08 05:52:35;;;;;;;41.00;18.60;;;;;;;3.06;58.41;101202.56;124040;1099;104223;-81
2024/03/08 05:55:09;;;;;;;39.83;18.07;;;;;;;3.13;58.58;101207.45;124121;1099;104242;-80
2024/03/08 05:57:42;;;;;;;44.40;19.02;;;;;;;3.15;58.32;101208.46;124173;1099;104239;-80
2024/03/08 06:00:15;;;;;;;37.40;19.20;;;;;;;3.18;58.37;101212.95;124163;1099;104692;-80
2024/03/08 06:02:46;;;;;;;41.60;19.77;;;;;;;3.17;57.84;101213.77;124102;1099;104376;-80
2024/03/08 06:05:17;;;;;;;42.60;18.40;;;;;;;3.18;58.24;101211.29;123990;1099;105608;-81
2024/03/08 06:07:49;;;;;;;41.03;18.53;;;;;;;3.26;58.75;101210.95;124042;1099;104252;-81
2024/03/08 06:10:20;;;;;;;34.73;16.97;;;;;;;3.34;58.73;101202.09;124098;1098;104377;-81
2024/03/08 06:12:52;;;;;;;38.87;19.00;;;;;;;3.37;58.03;101204.91;123883;1099;104373;-80
2024/03/08 06:15:23;;;;;;;39.70;19.03;;;;;;;3.34;58.02;101210.77;124218;1099;104373;-80
2024/03/08 06:17:54;;;;;;;34.53;16.80;;;;;;;3.33;58.54;101202.86;124075;1099;104267;-81
2024/03/08 06:20:26;;;;;;;39.83;17.53;;;;;;;3.37;57.42;101202.32;124082;1099;104223;-79
2024/03/08 06:22:57;;;;;;;33.23;17.00;;;;;;;3.38;58.06;101209.29;124228;1099;104414;-80
2024/03/08 06:25:28;;;;;;;35.07;17.13;;;;;;;3.39;57.69;101204.22;123974;1099;104465;-80
2024/03/08 06:28:00;;;;;;;36.77;17.67;;;;;;;3.42;57.45;101203.56;124229;1099;104236;-81
2024/03/08 06:30:31;;;;;;;34.57;16.20;;;;;;;3.45;57.76;101205.49;124021;1098;104364;-80
2024/03/08 06:33:02;;;;;;;33.70;16.17;;;;;;;3.46;57.78;101203.02;124015;1098;104296;-81
2024/03/08 06:35:33;;;;;;;33.77;16.13;;;;;;;3.48;57.43;101211.80;123959;1099;104861;-80
2024/03/08 06:38:05;;;;;;;35.93;16.63;;;;;;;3.47;57.64;101204.80;124016;1099;104233;-80
2024/03/08 06:40:36;;;;;;;37.13;16.03;;;;;;;3.51;57.31;101205.95;124064;1099;104307;-80
2024/03/08 06:43:07;;;;;;;31.67;15.53;;;;;;;3.57;57.92;101202.13;124229;1099;104268;-80
2024/03/08 06:45:38;;;;;;;34.87;16.50;;;;;;;3.70;57.78;101197.84;123947;1098;104296;-81
2024/03/08 06:48:10;;;;;;;37.47;17.50;;;;;;;3.80;57.50;101204.61;124016;1099;104790;-81
2024/03/08 06:50:41;;;;;;;34.07;16.13;;;;;;;3.84;57.02;101202.36;123962;1099;104456;-80
2024/03/08 06:53:13;;;;;;;35.23;16.27;;;;;;;3.82;56.77;101198.76;124001;1099;104360;-80
2024/03/08 06:55:45;;;;;;;31.47;14.87;;;;;;;3.79;57.39;101201.12;123978;1099;104402;-80
2024/03/08 06:58:16;;;;;;;30.97;14.83;;;;;;;3.84;57.67;101198.88;124075;1099;104322;-81
2024/03/08 07:00:51;;;;;;;33.77;15.30;;;;;;;3.94;56.98;101210.05;124115;1099;104293;-80
2024/03/08 07:03:23;;;;;;;29.70;14.80;;;;;;;3.96;56.67;101198.07;124033;1099;104280;-79
2024/03/08 07:05:55;;;;;;;33.83;15.37;;;;;;;4.01;56.90;101193.22;123843;1099;104226;-80
2024/03/08 07:08:26;;;;;;;32.00;15.90;;;;;;;4.07;56.52;101195.37;123963;1099;104242;-81
2024/03/08 07:10:58;;;;;;;32.77;15.27;;;;;;;4.11;56.93;101187.91;123823;1099;104299;-80
2024/03/08 07:13:29;;;;;;;35.23;15.37;;;;;;;4.18;56.24;101189.25;123670;1099;104364;-80
2024/03/08 07:16:01;;;;;;;32.67;14.87;;;;;;;4.25;56.54;101188.88;123973;1099;104353;-81
2024/03/08 07:18:32;;;;;;;31.20;14.53;;;;;;;4.35;56.99;101200.86;123992;1098;104315;-80
2024/03/08 07:21:05;;;;;;;35.40;15.68;;;;;;;4.42;56.53;101197.89;123953;1099;104290;-80
2024/03/08 07:24:13;;;;;;;31.53;15.50;;;;;;;4.47;56.35;101193.94;124039;1099;104348;-81
2024/03/08 07:26:44;;;;;;;31.20;15.00;;;;;;;4.56;56.00;101197.98;123687;1099;104302;-80
2024/03/08 07:29:16;;;;;;;30.83;15.17;;;;;;;4.62;56.07;101194.11;124012;1098;104302;-81
2024/03/08 07:31:56;;;;;;;31.37;14.67;;;;;;;4.73;55.69;101199.17;124068;1099;104210;-80
2024/03/08 07:34:27;;;;;;;34.47;15.37;;;;;;;4.86;55.83;101199.22;123808;1099;104347;-80
2024/03/08 07:36:59;;;;;;;34.30;15.80;;;;;;;4.94;55.29;101203.28;123841;1098;104463;-80
2024/03/08 07:39:30;;;;;;;30.07;14.97;;;;;;;4.97;54.98;101198.29;123791;1099;104380;-81
2024/03/08 07:42:01;;;;;;;30.70;15.33;;;;;;;5.11;55.37;101191.44;124034;1099;104277;-81
2024/03/08 07:44:33;;;;;;;30.83;15.13;;;;;;;5.20;55.27;101193.75;123784;1099;104242;-81
2024/03/08 07:47:04;;;;;;;31.00;15.23;;;;;;;5.31;55.26;101192.77;124012;1099;104273;-81
2024/03/08 07:49:37;;;;;;;31.90;16.23;;;;;;;5.44;55.44;101188.39;124025;1099;104243;-81
2024/03/08 07:52:09;;;;;;;34.13;16.40;;;;;;;5.52;55.33;101192.44;124060;1098;104288;-80
2024/03/08 07:54:40;;;;;;;32.43;14.80;;;;;;;5.49;54.74;101189.63;123830;1099;104856;-80
2024/03/08 07:57:11;;;;;;;33.30;15.60;;;;;;;5.51;54.73;101188.02;124057;1099;104274;-80
2024/03/08 07:59:42;;;;;;;31.30;15.73;;;;;;;5.61;54.62;101181.72;123852;1099;104322;-80
2024/03/08 08:02:13;;;;;;;29.93;15.03;;;;;;;5.69;53.82;101180.55;123979;1098;104235;-81
2024/03/08 08:04:46;;;;;;;30.60;14.73;;;;;;;5.81;54.27;101175.22;124126;1099;104416;-80
2024/03/08 08:07:17;;;;;;;31.57;15.33;;;;;;;5.91;54.50;101180.25;124006;1098;104396;-79
2024/03/08 08:09:48;;;;;;;34.77;16.93;;;;;;;5.96;54.08;101178.83;123972;1099;104345;-80
2024/03/08 08:12:20;;;;;;;34.27;16.53;;;;;;;5.91;53.50;101172.44;124031;1098;104265;-79
2024/03/08 08:14:51;;;;;;;38.47;17.57;;;;;;;5.89;53.65;101174.94;123620;1099;104213;-80
2024/03/08 08:17:23;;;;;;;35.77;16.47;;;;;;;5.90;53.44;101170.62;123918;1099;105623;-78
2024/03/08 08:19:54;;;;;;;30.03;15.30;;;;;;;5.91;52.94;101175.93;123872;1099;104351;-79
2024/03/08 08:22:25;;;;;;;36.63;16.97;;;;;;;5.88;53.52;101172.23;124074;1099;104272;-81
2024/03/08 08:24:56;;;;;;;34.57;16.43;;;;;;;5.96;53.44;101171.02;124069;1099;104361;-81
2024/03/08 08:27:28;;;;;;;34.13;17.47;;;;;;;6.00;53.01;101170.46;123676;1099;104245;-80
2024/03/08 08:29:59;;;;;;;34.40;16.35;;;;;;;5.96;52.58;101167.52;123925;1099;104207;-80
2024/03/08 08:32:30;;;;;;;31.80;15.50;;;;;;;6.03;52.47;101167.12;124054;1099;104267;-80
2024/03/08 08:35:02;;;;;;;33.83;16.73;;;;;;;6.03;52.86;101164.52;123851;1099;104620;-79
2024/03/08 08:37:35;;;;;;;34.13;17.20;;;;;;;6.05;52.77;101162.95;124014;1099;104251;-80
2024/03/08 08:40:10;;;;;;;31.90;16.27;;;;;;;6.15;52.48;101172.25;124035;1099;104315;-80
2024/03/08 08:42:41;;;;;;;31.93;15.47;;;;;;;6.24;52.56;101159.80;124220;1099;104428;-81
2024/03/08 08:45:14;;;;;;;40.63;17.57;;;;;;;6.41;53.05;101156.55;124456;1099;104408;-82
2024/03/08 08:47:47;;;;;;;58.17;19.93;;;;;;;6.64;52.55;101159.70;124268;1099;104278;-81
2024/03/08 08:50:22;;;;;;;35.60;16.70;;;;;;;6.72;52.03;101163.68;124429;1099;104261;-79
2024/03/08 08:52:54;;;;;;;33.40;16.47;;;;;;;6.66;51.95;101171.12;124734;1099;102073;-78
2024/03/08 08:55:25;;;;;;;38.37;17.30;;;;;;;6.65;51.97;101159.80;124308;1099;104348;-79
2024/03/08 08:57:57;;;;;;;35.13;16.00;;;;;;;6.71;51.25;101164.48;123867;1099;104306;-79
2024/03/08 09:00:30;;;;;;;34.23;17.07;;;;;;;6.71;51.63;101163.59;124325;1099;104232;-78
2024/03/08 09:03:02;;;;;;;33.28;16.05;;;;;;;6.64;52.53;101159.70;124301;1099;104191;-80
2024/03/08 09:05:33;;;;;;;30.50;15.20;;;;;;;6.68;51.62;101160.78;124161;1098;104271;-80
2024/03/08 09:08:05;;;;;;;32.43;15.90;;;;;;;6.71;51.04;101167.08;124138;1099;104299;-79
2024/03/08 09:10:39;;;;;;;31.10;15.80;;;;;;;6.67;51.06;101167.72;124235;1099;104270;-80
2024/03/08 09:13:11;;;;;;;31.80;16.50;;;;;;;6.60;50.74;101162.92;124109;1099;104255;-78
2024/03/08 09:15:42;;;;;;;35.03;16.17;;;;;;;6.54;51.01;101160.81;123885;1099;104274;-78
2024/03/08 09:18:14;;;;;;;33.70;16.25;;;;;;;6.55;51.12;101160.02;123700;1099;105485;-80
2024/03/08 09:20:45;;;;;;;30.83;15.23;;;;;;;6.73;51.37;101154.14;124195;1099;104173;-80
2024/03/08 09:23:16;;;;;;;27.43;13.67;;;;;;;7.00;50.95;101150.61;123803;1099;104306;-79
2024/03/08 09:25:48;;;;;;;32.07;15.80;;;;;;;7.12;50.50;101149.53;123839;1099;104325;-79
2024/03/08 09:28:19;;;;;;;30.70;14.83;;;;;;;7.15;50.28;101148.03;123621;1099;104335;-78
2024/03/08 09:30:50;;;;;;;31.90;15.87;;;;;;;7.15;50.30;101142.81;123858;1098;104351;-77
2024/03/08 09:33:22;;;;;;;31.80;16.47;;;;;;;7.17;49.99;101149.02;123679;1100;104345;-79
2024/03/08 09:35:53;;;;;;;31.30;16.33;;;;;;;7.24;50.25;101145.05;123781;1099;104118;-80
2024/03/08 09:38:25;;;;;;;28.60;14.80;;;;;;;7.27;50.00;101146.95;123867;1099;105630;-79
2024/03/08 09:40:57;;;;;;;31.87;15.10;;;;;;;7.24;49.53;101138.94;124309;1099;104172;-79
2024/03/08 09:43:28;;;;;;;31.93;15.60;;;;;;;7.23;50.05;101145.88;124088;1099;104303;-81
2024/03/08 09:46:00;;;;;;;31.33;15.57;;;;;;;7.38;50.23;101140.64;124200;1099;104386;-79
2024/03/08 09:48:31;;;;;;;31.60;15.83;;;;;;;7.52;50.28;101128.40;124135;1099;104367;-79
2024/03/08 09:51:03;;;;;;;31.00;15.60;;;;;;;7.55;49.57;101125.96;124291;1099;104328;-79
2024/03/08 09:53:36;;;;;;;33.83;15.50;;;;;;;7.52;49.08;101133.62;123786;1099;104351;-79
2024/03/08 09:56:08;;;;;;;30.63;16.20;;;;;;;7.56;49.14;101135.61;124199;1099;104242;-79
2024/03/08 09:58:56;;;;;;;30.43;15.60;;;;;;;7.53;49.53;101125.88;124127;1099;104259;-80
2024/03/08 10:01:28;;;;;;;27.40;14.45;;;;;;;7.69;49.79;101116.31;124923;1098;104284;-80
2024/03/08 10:03:59;;;;;;;30.37;15.10;;;;;;;7.75;48.94;101127.11;125211;1099;104267;-79
2024/03/08 10:06:31;;;;;;;30.53;15.13;;;;;;;7.70;49.24;101123.34;124514;1099;104267;-79
2024/03/08 10:09:02;;;;;;;30.47;15.40;;;;;;;7.71;49.07;101125.13;124322;1099;104255;-79
2024/03/08 10:11:33;;;;;;;31.75;15.90;;;;;;;7.65;48.79;101124.77;124095;1099;104331;-78
2024/03/08 10:14:06;;;;;;;30.80;15.37;;;;;;;7.65;48.37;101111.71;124019;1099;104453;-78
2024/03/08 10:16:37;;;;;;;31.07;15.53;;;;;;;7.61;48.45;101113.26;123687;1099;104281;-78
2024/03/08 10:19:09;;;;;;;29.40;14.63;;;;;;;7.69;48.15;101108.47;123720;1099;104172;-80
2024/03/08 10:21:51;;;;;;;28.93;14.63;;;;;;;7.78;48.88;101102.89;124151;1099;102025;-80
2024/03/08 10:24:23;;;;;;;32.33;15.13;;;;;;;7.92;48.12;101104.55;124162;1099;104194;-79
2024/03/08 10:26:59;;;;;;;30.70;15.47;;;;;;;7.99;48.40;101097.95;123808;1099;104306;-80
2024/03/08 10:29:31;;;;;;;29.87;14.57;;;;;;;8.03;47.76;101107.77;123867;1099;104322;-79
2024/03/08 10:32:06;;;;;;;26.27;13.33;;;;;;;8.10;48.49;101099.43;123972;1098;104240;-79
2024/03/08 10:34:37;;;;;;;30.43;15.30;;;;;;;8.06;47.16;101092.25;124257;1099;104200;-79
2024/03/08 10:37:17;;;;;;;30.50;14.50;;;;;;;7.95;47.77;101094.27;123755;1099;104680;-79
2024/03/08 10:40:10;;;;;;;29.67;14.60;;;;;;;7.90;47.75;101090.52;123679;1100;104361;-79
2024/03/08 10:42:52;;;;;;;26.03;13.87;;;;;;;7.78;46.90;101095.05;123922;1099;104321;-79
2024/03/08 10:45:35;;;;;;;31.87;14.33;;;;;;;7.64;47.60;101086.42;123848;1099;104325;-79
2024/03/08 10:48:31;;;;;;;29.55;15.80;;;;;;;7.62;47.81;101091.56;123685;1099;104227;-80
2024/03/08 10:51:08;;;;;;;29.97;14.87;;;;;;;7.67;47.90;101082.27;123688;1099;104290;-80
2024/03/08 10:53:41;;;;;;;28.07;14.30;;;;;;;7.73;47.34;101082.61;124094;1098;104284;-80
2024/03/08 10:56:14;;;;;;;30.27;15.57;;;;;;;7.86;46.82;101071.13;124222;1099;104246;-79
2024/03/08 10:58:47;;;;;;;28.40;14.10;;;;;;;8.05;47.13;101062.58;124072;1099;104364;-80
2024/03/08 11:01:18;;;;;;;29.80;14.75;;;;;;;8.02;45.89;101071.98;124726;1099;104248;-80
2024/03/08 11:03:53;;;;;;;29.30;14.73;;;;;;;7.98;46.95;101063.08;123812;1099;104265;-80
2024/03/08 11:06:42;;;;;;;29.80;14.40;;;;;;;8.05;46.99;101059.97;124289;1099;104344;-80
2024/03/08 11:09:30;;;;;;;29.45;14.80;;;;;;;8.17;46.47;101053.63;124023;1099;104249;-80
2024/03/08 11:12:28;;;;;;;32.60;14.90;;;;;;;8.21;45.91;101059.11;123920;1099;110826;-78
2024/03/08 11:15:04;;;;;;;28.87;13.93;;;;;;;8.06;45.87;101064.39;124113;1099;104321;-78
2024/03/08 11:17:48;;;;;;;29.83;14.30;;;;;;;7.99;45.66;101061.36;124192;1099;104277;-78
2024/03/08 11:20:20;;;;;;;29.90;15.07;;;;;;;7.90;45.97;101054.81;124132;1099;104337;-78
2024/03/08 11:22:53;;;;;;;28.10;14.23;;;;;;;7.84;46.36;101046.64;124001;1099;104238;-79
2024/03/08 11:25:41;;;;;;;29.60;14.90;;;;;;;7.96;46.23;101053.34;124146;1098;104239;-80